CheckWX is a tool to help pilots better visualize weather data.  It is not intended as a substitute for an official pre-flight weather briefing.

18:27:35 UTC

CYFT METAR
Makkovik Airport
Makkovik, Canada
Current

28 mins ago

CYFT 241800Z 36009KT 340V040 15SM SKC M04/M09 A3015 RMK SLP217
Observed
Apr-24 @ 18:00 UTC
Wind
  • 360° at 9 KTS
Visibility
15 SM
Flight Rules
VFR
Cloud Levels
  • Clear skies
Temperature
-4°C / 25°F
Dewpoint
-9°C / 16°F
Humidity
69%
Altimeter
30.15" Hg
Pressure
1021.02 hPa
Previous

1 hour ago

CYFT 241700Z 36005KT 15SM SKC M04/M10 A3015 RMK SLP217
Observed
Apr-24 @ 17:00 UTC
Wind
  • 360° at 5 KTS
Visibility
15 SM
Flight Rules
VFR
Cloud Levels
  • Clear skies
Temperature
-4°C / 25°F
Dewpoint
-10°C / 14°F
Humidity
63%
Altimeter
30.15" Hg
Pressure
1021.02 hPa
Previous

2 hours ago

CYFT 241600Z 33006KT 300V360 15SM SKC M04/M12 A3015 RMK SLP219
Observed
Apr-24 @ 16:00 UTC
Wind
  • 330° at 6 KTS
Visibility
15 SM
Flight Rules
VFR
Cloud Levels
  • Clear skies
Temperature
-4°C / 25°F
Dewpoint
-12°C / 10°F
Humidity
54%
Altimeter
30.15" Hg
Pressure
1021.02 hPa